Lampeter, Pennsylvania
Current Conditions -  °F | °C
As of 10:53 AM on Sunday 21 Dec 2014 (Local Time) from KLNS Reporting Station
Overcast Overcast  
Wind Chill: 26°   Ceiling: 2600
Heat Index: 33°   Visibility: 9mi
Dew Point: 22°   Wind: 8mph
Humidity: 64%   Direction: 310°NW
Pressure: 30.34"   Gusts: NA
Location:  39.99°N, 76.24°W
Report Text: KLNS 211553Z 31007KT 9SM OVC026 01/M06 A3034 RMK AO2 SLP278 T00061056
Loading
Personal Weather Stations






























Interactive Weather Map New forecast layout! Learn more

10-Day Weather Forecast

Advertisements
Track Severe Weather on mobile